Rechercher aéroport 
image banner adimage banner adimage banner ad
image banner ad

KNRS - Imperial Beach Nolf (Ream Fld)

Situé à Imperial Beach, United States

ICAO - NRS, IATA -

Données fournies par Airmate  

Information générale

Coordonnées: N32°33'58" W117°6'49"
Élévation : 24 feet MSL.
Variation magnétique : 11° East
Voir autres Aéroports à California

Données opérationnelles

Special qualification required
Heure actuelle UTC:
Heure actuelle locale:
Météo
METAR: KNRS 210256Z 23004KT 8SM CLR 20/19 A2995 RMK AO2 SLP140 T02060194 53011 $
Voir NOTAMs / SUP AIP / TFR affectant cet aéroport [VIEW]
Fréquences de communication: [VIEW]

Pistes:

Identifiant RWYQFULongueur (ft)Largeur (ft)SurfaceLDA (ft)
082240151CONC
262240151CONC
094997336OTHER
274997336OTHER

Coordonnées de l'aéroport

Adresse: Imperial Beach United States

Vue satellite de KNRS